Terminal Aerodrome Forecast
Issued by NWS Grand Forks, ND

Home | Current Version | Previous Version | Graphics & Text | Print | Product List | Glossary On
Versions: 1 2 3 4 5 6 7 8 9 10 11 12 13 14 15 16 17 18 19 20
000
FTUS43 KFGF 261056 AAA
TAFGFK
TAF AMD
KGFK 261056Z 2611/2706 VRB03KT P6SM FEW250
      TEMPO 2611/2613 1/2SM FG BKN002
     FM261500 19008KT P6SM FEW250=

USA.gov is the U.S. government's official web portal to all federal, state and local government web resources and services.